Etusivu
METAR-TAF:

METAR-TAF

Lentoasemat :

St. George, Alaska, Yhdysvallat

Leveyspiiri: 56-34-43N, Pituuspiiri: 169-39-41W, korkeus merenpinnasta: 38 m

Tämänhetkinen sää

Tämä raportti tehtiin 24 minuuttia sitten, kello 22.53 UTC
Tuuli 23 kn koillisesta puuskistuen 29 kn:hen
Lämpötila 14°C
Kosteus 88%
Ilmanpaine 1023 hPa
Näkyvyys: 16.1 km
selkeää

METAR: PAPB 182253Z AUTO 05023G29KT 10SM CLR 14/12 A3022 RMK AO2 PK WND 05029/2248 SLP221 T01440117 TSNO $

Aika: 15:17 (23:17 UTC)


TAF: puuttuu

Säähavainnot ja -ennusteet yli 4000 lentoasemalta (METAR- ja TAF-raportit).

Käytössä olevat sääasemat on merkitty karttaan keltaisilla ja punaisilla pisteillä.

Aseta hiiri pisteen päälle nähdäksesi sääaseman nimen.

Klikkaa sitten nähdäksesi säähavainnot ja -ennusteet.

Kartan vaihtaminen: klikkaa mustalla rastilla varustettuja vihreitä pisteitä, niin voit zoomata sisään; viivalla varustettua vihreää pistettä, niin voit zoomata ulos tai vihreitä nuolia, niin pääset viereisille kartoille.


METAR-TAF: